WAJJ/DJJ METAR and TAF weather

Enter ICAO airport designator
Station Type Date Time Source
WAJJ METAR 2019/08/25 02:30 UTC NOAA

WAJJ 250230Z 14004KT 9999 FEW013 30/23 Q1009 NOSIG


Station Type Date Time Source
WAJJ Decoded METAR 2019/08/25 02:30 UTC NOAA

Station name not available
Aug 24, 2019 - 10:30 PM EDT / 2019.08.25 0230 UTC
Wind: from the SE (140 degrees) at 5 MPH (4 KT):0
Visibility: greater than 7 mile(s):0
Sky conditions: mostly clear
Temperature: 86 F (30 C)
Heat index: 93.4 F (34.1 C):1
Dew Point: 73 F (23 C)
Relative Humidity: 66%
Pressure (altimeter): 29.80 in. Hg (1009 hPa)
ob: WAJJ 250230Z 14004KT 9999 FEW013 30/23 Q1009 NOSIG
cycle: 2

Station Type Date Time Source
WAJJ TAF 2013/03/11 12:00 UTC NOAA

TAF WAJJ 111100Z 1112/1212 29006KT 5000 HZ SCT016
TEMPO 1113/1121 4000 RA FEW014CB
BECMG 1200/1202 28012KT 9999
TEMPO 1207/1212 6000 RA FEW014CB

Example: see airport list